Time;durP1;ratioP1;P1;durP2;ratioP2;P2;SDS_P1;SDS_P2;PMS_P1;PMS_P2;Temp;Humidity;BMP_temperature;BMP_pressure;BME280_temperature;BME280_humidity;BME280_pressure;Samples;Min_cycle;Max_cycle;Signal;HPM_P1;HPM_P2
2022/08/31 00:06:18;;;;;;;14.65;9.05;;;;;;;14.93;100.00;95567.59;5088248;28;20044;-76
2022/08/31 00:08:43;;;;;;;17.00;9.05;;;;;;;15.01;100.00;95566.91;5083090;28;20814;-75
2022/08/31 00:11:12;;;;;;;16.17;9.05;;;;;;;15.03;100.00;95570.03;5087508;28;20040;-76
2022/08/31 00:13:39;;;;;;;15.93;9.23;;;;;;;15.07;100.00;95565.72;5080869;28;20439;-76
2022/08/31 00:16:05;;;;;;;14.82;8.77;;;;;;;15.04;100.00;95568.97;5088838;28;20071;-75
2022/08/31 00:18:30;;;;;;;18.48;10.65;;;;;;;15.06;100.00;95561.50;5087771;28;20802;-75
2022/08/31 00:20:56;;;;;;;20.02;9.85;;;;;;;15.06;100.00;95566.03;5073800;28;20113;-75
2022/08/31 00:23:22;;;;;;;14.95;9.02;;;;;;;15.00;100.00;95568.00;5084348;28;20045;-75
2022/08/31 00:25:48;;;;;;;15.70;8.95;;;;;;;15.00;100.00;95577.81;5086333;28;20493;-75
2022/08/31 00:28:15;;;;;;;14.35;9.00;;;;;;;14.84;100.00;95574.66;5087814;28;20569;-76
2022/08/31 00:30:42;;;;;;;15.68;9.45;;;;;;;14.73;100.00;95574.84;5080707;28;20062;-76
2022/08/31 00:33:08;;;;;;;15.80;8.77;;;;;;;14.91;100.00;95569.75;5087511;28;20048;-75
2022/08/31 00:35:35;;;;;;;13.80;8.77;;;;;;;15.06;100.00;95572.09;5087979;28;20040;-75
2022/08/31 00:38:02;;;;;;;17.17;8.73;;;;;;;15.00;100.00;95577.81;5081582;28;20044;-76
2022/08/31 00:40:28;;;;;;;19.40;9.13;;;;;;;14.96;100.00;95572.31;5083820;28;20040;-76
2022/08/31 00:42:54;;;;;;;14.18;9.18;;;;;;;14.95;100.00;95565.44;5090319;28;20444;-76
2022/08/31 00:45:21;;;;;;;13.45;8.70;;;;;;;14.97;100.00;95573.09;5090529;28;20087;-75
2022/08/31 00:47:47;;;;;;;18.15;9.50;;;;;;;14.94;100.00;95574.47;5090871;28;20059;-76
2022/08/31 00:50:14;;;;;;;20.58;8.90;;;;;;;14.94;100.00;95569.19;5090672;28;20032;-76
2022/08/31 00:52:45;;;;;;;17.60;9.07;;;;;;;15.01;100.00;95564.28;5087658;28;20036;-75
2022/08/31 00:55:15;;;;;;;17.00;9.50;;;;;;;14.96;100.00;95566.25;5091744;28;20682;-76
2022/08/31 00:57:45;;;;;;;18.55;9.95;;;;;;;14.92;100.00;95566.03;5090814;28;20052;-76
2022/08/31 01:00:15;;;;;;;13.68;9.40;;;;;;;14.73;100.00;95561.63;5090780;28;20040;-76
2022/08/31 01:02:41;;;;;;;17.38;9.45;;;;;;;14.67;100.00;95560.16;5087356;28;20192;-76
2022/08/31 01:05:08;;;;;;;16.42;8.95;;;;;;;14.81;100.00;95564.66;5102239;28;20067;-76
2022/08/31 01:07:34;;;;;;;16.10;9.07;;;;;;;14.97;100.00;95563.28;5084892;28;20339;-76
2022/08/31 01:10:01;;;;;;;15.60;8.75;;;;;;;15.02;100.00;95560.53;5089750;28;20481;-76
2022/08/31 01:12:27;;;;;;;12.70;8.52;;;;;;;15.06;100.00;95561.50;5080411;28;20604;-76
2022/08/31 01:14:54;;;;;;;14.43;8.70;;;;;;;15.00;100.00;95552.09;5089070;28;20050;-75
2022/08/31 01:17:21;;;;;;;16.85;9.45;;;;;;;14.99;100.00;95561.13;5090831;28;20065;-76
2022/08/31 01:20:06;;;;;;;16.67;9.88;;;;;;;15.01;100.00;95561.63;5090052;28;20119;-76
2022/08/31 01:22:44;;;;;;;16.67;9.88;;;;;;;15.16;100.00;95570.34;5089494;28;20093;-76
2022/08/31 01:25:11;;;;;;;21.83;10.32;;;;;;;15.13;100.00;95573.56;5090029;28;20048;-76
2022/08/31 01:27:37;;;;;;;21.88;10.60;;;;;;;15.20;100.00;95579.25;5089642;28;20043;-76
2022/08/31 01:30:06;;;;;;;23.60;10.70;;;;;;;15.14;100.00;95572.50;5087970;28;20036;-76
2022/08/31 01:32:31;;;;;;;21.13;11.68;;;;;;;15.18;100.00;95573.47;5089939;28;20043;-76
2022/08/31 01:34:57;;;;;;;15.65;10.05;;;;;;;15.28;100.00;95578.56;5087409;28;20036;-76
2022/08/31 01:37:23;;;;;;;18.45;11.15;;;;;;;15.34;100.00;95572.06;5088059;28;20509;-76
2022/08/31 01:39:51;;;;;;;16.98;10.55;;;;;;;15.35;100.00;95565.66;5089823;28;20544;-75
2022/08/31 01:42:17;;;;;;;19.70;10.73;;;;;;;15.31;100.00;95566.56;5083031;28;20048;-77
2022/08/31 01:44:43;;;;;;;17.25;10.50;;;;;;;15.24;100.00;95562.47;5088769;28;20127;-76
2022/08/31 01:47:09;;;;;;;20.42;10.32;;;;;;;15.28;100.00;95560.00;5089817;28;20566;-76
2022/08/31 01:49:36;;;;;;;19.55;10.68;;;;;;;15.38;100.00;95551.03;5089389;28;20036;-76
2022/08/31 01:52:01;;;;;;;15.45;10.32;;;;;;;15.32;100.00;95553.00;5086428;28;20515;-76
2022/08/31 01:54:27;;;;;;;17.30;10.98;;;;;;;15.30;100.00;95549.91;5089679;28;20075;-76
2022/08/31 01:56:53;;;;;;;18.15;10.20;;;;;;;15.32;100.00;95558.31;5087137;28;20051;-76
2022/08/31 01:59:21;;;;;;;16.52;10.60;;;;;;;15.25;100.00;95566.66;5082517;28;20181;-76
2022/08/31 02:01:50;;;;;;;15.98;10.93;;;;;;;15.30;100.00;95565.81;5082206;28;20089;-76
2022/08/31 02:04:17;;;;;;;18.83;10.93;;;;;;;15.23;100.00;95554.81;5082790;28;20497;-76
2022/08/31 02:06:46;;;;;;;20.77;10.20;;;;;;;15.20;100.00;95560.69;5089585;28;20059;-76
2022/08/31 02:09:12;;;;;;;22.05;11.43;;;;;;;15.24;100.00;95559.00;5086290;28;20537;-76
2022/08/31 02:11:38;;;;;;;16.55;10.65;;;;;;;15.26;100.00;95559.53;5088512;28;20505;-76
2022/08/31 02:14:04;;;;;;;21.45;11.63;;;;;;;15.22;100.00;95558.53;5081208;28;20048;-76
2022/08/31 02:16:29;;;;;;;18.15;10.85;;;;;;;15.23;100.00;95549.50;5089619;28;20097;-76
2022/08/31 02:18:55;;;;;;;22.88;12.45;;;;;;;15.21;100.00;95549.00;5087669;28;20665;-76
2022/08/31 02:21:21;;;;;;;19.88;10.80;;;;;;;15.33;100.00;95554.59;5088089;28;20052;-76
2022/08/31 02:23:47;;;;;;;19.25;11.30;;;;;;;15.24;100.00;95545.75;5089526;28;20040;-76
2022/08/31 02:26:13;;;;;;;20.85;11.68;;;;;;;15.27;100.00;95550.50;5088236;28;20047;-76
2022/08/31 02:28:39;;;;;;;21.65;12.02;;;;;;;15.23;100.00;95555.59;5089435;28;20047;-76
2022/08/31 02:31:04;;;;;;;19.05;11.70;;;;;;;15.34;100.00;95545.56;5087361;28;20122;-76
2022/08/31 02:33:30;;;;;;;20.83;11.15;;;;;;;15.19;100.00;95554.63;5089354;28;20071;-76
2022/08/31 02:35:55;;;;;;;19.73;12.50;;;;;;;15.31;100.00;95562.03;5088857;28;20040;-76
2022/08/31 02:38:24;;;;;;;20.30;11.40;;;;;;;15.25;100.00;95557.94;5083711;28;20042;-76
2022/08/31 02:40:50;;;;;;;23.30;12.30;;;;;;;15.24;100.00;95561.66;5086965;28;20048;-76
2022/08/31 02:43:16;;;;;;;19.60;11.93;;;;;;;15.22;100.00;95558.53;5084297;28;20117;-76
2022/08/31 02:45:41;;;;;;;19.50;12.25;;;;;;;15.17;100.00;95553.34;5088922;28;20471;-76
2022/08/31 02:48:08;;;;;;;18.15;11.40;;;;;;;15.27;100.00;95550.50;5089282;28;20644;-76
2022/08/31 02:50:42;;;;;;;20.13;10.93;;;;;;;15.26;100.00;95554.22;5084158;28;20036;-76
2022/08/31 02:53:09;;;;;;;17.90;10.93;;;;;;;15.31;100.00;95551.44;5088475;28;20036;-76
2022/08/31 02:55:35;;;;;;;19.58;11.43;;;;;;;15.26;100.00;95554.22;5088890;28;20111;-76
2022/08/31 02:58:01;;;;;;;18.52;11.30;;;;;;;15.26;100.00;95559.53;5088203;28;20070;-76
2022/08/31 03:00:26;;;;;;;21.70;11.80;;;;;;;15.18;100.00;95549.59;5085824;28;20577;-76
2022/08/31 03:02:53;;;;;;;19.55;11.75;;;;;;;15.15;100.00;95552.84;5088797;28;20051;-75
2022/08/31 03:05:20;;;;;;;21.40;12.43;;;;;;;15.27;100.00;95545.19;5088741;28;20040;-75
2022/08/31 03:07:48;;;;;;;20.30;11.63;;;;;;;15.22;100.00;95545.28;5089145;28;20040;-75
2022/08/31 03:10:15;;;;;;;21.27;11.55;;;;;;;15.33;100.00;95549.28;5081342;28;20044;-75
2022/08/31 03:12:40;;;;;;;18.15;11.20;;;;;;;15.29;100.00;95552.84;5084101;28;20086;-75
2022/08/31 03:15:07;;;;;;;16.00;9.75;;;;;;;15.33;100.00;95565.19;5085789;28;20498;-75
2022/08/31 03:17:33;;;;;;;18.73;10.70;;;;;;;15.32;100.00;95560.19;5088642;28;20067;-76
2022/08/31 03:20:01;;;;;;;16.35;9.73;;;;;;;15.28;100.00;95562.66;5087628;28;20750;-76
2022/08/31 03:22:28;;;;;;;16.63;9.85;;;;;;;15.14;100.00;95560.03;5074429;28;20433;-75
2022/08/31 03:24:53;;;;;;;15.65;9.38;;;;;;;15.11;100.00;95551.88;5080912;28;20052;-75
2022/08/31 03:27:19;;;;;;;16.23;9.80;;;;;;;15.05;100.00;95556.50;5088692;28;20040;-75
2022/08/31 03:29:45;;;;;;;17.58;9.63;;;;;;;15.02;100.00;95549.91;5087676;28;20043;-76
2022/08/31 03:32:10;;;;;;;17.67;10.77;;;;;;;14.99;100.00;95545.22;5086136;28;20043;-76
2022/08/31 03:34:36;;;;;;;15.02;9.68;;;;;;;15.10;100.00;95551.09;5085673;28;20048;-76
2022/08/31 03:37:02;;;;;;;16.35;9.90;;;;;;;15.14;100.00;95545.97;5086904;28;20043;-76
2022/08/31 03:39:28;;;;;;;15.77;10.23;;;;;;;15.12;100.00;95553.47;5088057;28;20044;-75
2022/08/31 03:41:53;;;;;;;16.27;10.35;;;;;;;15.04;100.00;95547.78;5085707;28;20086;-76
2022/08/31 03:44:22;;;;;;;19.42;10.40;;;;;;;15.10;100.00;95555.59;5088705;28;20508;-76
2022/08/31 03:46:54;;;;;;;19.33;11.48;;;;;;;15.11;100.00;95557.19;5088297;28;20048;-75
2022/08/31 03:49:21;;;;;;;15.15;10.43;;;;;;;15.13;100.00;95560.31;5080644;28;20394;-76
2022/08/31 03:51:47;;;;;;;18.05;10.38;;;;;;;15.06;100.00;95572.09;5086793;28;20048;-76
2022/08/31 03:54:13;;;;;;;18.67;10.98;;;;;;;15.21;100.00;95572.88;5088455;28;20150;-76
2022/08/31 03:56:39;;;;;;;16.40;11.00;;;;;;;15.24;100.00;95572.28;5087968;28;20036;-76
2022/08/31 03:59:06;;;;;;;20.60;10.98;;;;;;;15.35;100.00;95578.94;5086349;28;20119;-76
2022/08/31 04:01:34;;;;;;;18.42;10.90;;;;;;;15.16;100.00;95575.66;5085229;28;20071;-76
2022/08/31 04:04:00;;;;;;;19.13;11.15;;;;;;;15.19;100.00;95583.00;5085560;28;20624;-76
2022/08/31 04:06:25;;;;;;;17.67;11.40;;;;;;;15.24;100.00;95582.88;5087281;28;20044;-76
2022/08/31 04:08:50;;;;;;;18.90;10.48;;;;;;;15.29;100.00;95577.47;5081873;28;20099;-76
2022/08/31 04:11:17;;;;;;;16.83;10.50;;;;;;;15.26;100.00;95591.34;5079566;28;20047;-77
2022/08/31 04:13:43;;;;;;;17.50;10.85;;;;;;;15.28;100.00;95588.38;5089220;28;20512;-76
2022/08/31 04:16:10;;;;;;;17.13;10.23;;;;;;;15.27;100.00;95587.59;5092499;28;20072;-76
2022/08/31 04:18:40;;;;;;;19.48;11.40;;;;;;;15.23;100.00;95587.41;5090943;28;20040;-75
2022/08/31 04:21:16;;;;;;;14.85;9.50;;;;;;;15.20;100.00;95587.19;5089661;28;20433;-76
2022/08/31 04:23:42;;;;;;;18.55;10.65;;;;;;;15.15;100.00;95595.28;5091984;28;20028;-76
2022/08/31 04:26:16;;;;;;;23.17;11.05;;;;;;;15.15;100.00;95589.97;5091602;28;20067;-76
2022/08/31 04:28:42;;;;;;;16.33;10.38;;;;;;;15.21;100.00;95591.44;5090793;28;20601;-76
2022/08/31 04:31:07;;;;;;;22.35;10.63;;;;;;;15.28;100.00;95599.00;5089494;28;20036;-76
2022/08/31 04:33:37;;;;;;;18.88;10.25;;;;;;;15.22;100.00;95600.97;5091909;28;20459;-76
2022/08/31 04:36:11;;;;;;;18.08;10.85;;;;;;;15.26;100.00;95591.34;5091608;28;20086;-75
2022/08/31 04:38:37;;;;;;;23.88;11.13;;;;;;;15.28;100.00;95594.47;5085550;28;20085;-76
2022/08/31 04:41:08;;;;;;;16.42;10.38;;;;;;;15.21;100.00;95588.78;5090038;28;20086;-76
2022/08/31 04:43:35;;;;;;;15.75;9.30;;;;;;;15.15;100.00;95584.66;5078239;28;20044;-76
2022/08/31 04:46:04;;;;;;;20.55;10.05;;;;;;;15.23;100.00;95586.63;5089713;28;20088;-76
2022/08/31 04:48:29;;;;;;;16.55;9.90;;;;;;;15.32;100.00;95584.84;5091782;28;20053;-76
2022/08/31 04:51:12;;;;;;;18.33;9.63;;;;;;;15.34;100.00;95593.28;5081100;28;20066;-76
2022/08/31 04:53:38;;;;;;;18.30;9.98;;;;;;;15.27;100.00;95587.59;5105084;28;20040;-76
2022/08/31 04:56:08;;;;;;;19.02;10.48;;;;;;;15.24;100.00;95588.19;5091028;28;20119;-76
2022/08/31 04:58:34;;;;;;;19.55;10.73;;;;;;;15.32;100.00;95589.38;5090229;28;20169;-76
2022/08/31 05:00:59;;;;;;;20.75;10.75;;;;;;;15.28;100.00;95594.47;5086273;28;20498;-76
2022/08/31 05:03:25;;;;;;;16.90;9.73;;;;;;;15.38;100.00;95593.47;5083294;28;20237;-76
2022/08/31 05:05:52;;;;;;;21.40;11.35;;;;;;;15.40;100.00;95592.09;5090562;28;20054;-74
2022/08/31 05:08:18;;;;;;;19.60;10.45;;;;;;;15.38;100.00;95588.94;5085433;28;20121;-75
2022/08/31 05:10:45;;;;;;;16.20;9.73;;;;;;;15.46;100.00;95594.63;5087113;28;20551;-75
2022/08/31 05:13:11;;;;;;;23.42;10.98;;;;;;;15.47;100.00;95601.50;5087441;28;20040;-75
2022/08/31 05:15:44;;;;;;;21.98;11.25;;;;;;;15.50;100.00;95596.41;5089219;28;20070;-75
2022/08/31 05:18:10;;;;;;;20.70;11.15;;;;;;;15.49;100.00;95599.34;5090360;28;20099;-75
2022/08/31 05:20:36;;;;;;;17.48;11.10;;;;;;;15.45;100.00;95598.38;5082893;28;20627;-76
2022/08/31 05:23:02;;;;;;;19.48;10.68;;;;;;;15.50;100.00;95593.75;5090368;28;20032;-77
2022/08/31 05:25:27;;;;;;;18.33;10.60;;;;;;;15.61;100.00;95607.56;5089405;28;20040;-77
2022/08/31 05:27:53;;;;;;;20.83;10.07;;;;;;;15.59;100.00;95607.09;5090637;28;20036;-75
2022/08/31 05:30:20;;;;;;;17.55;11.13;;;;;;;15.63;100.00;95610.72;5083437;28;20049;-75
2022/08/31 05:32:45;;;;;;;19.67;11.18;;;;;;;15.63;100.00;95615.22;5083022;28;20506;-76
2022/08/31 05:35:11;;;;;;;14.20;9.95;;;;;;;15.61;100.00;95607.56;5087649;28;20036;-76
2022/08/31 05:37:38;;;;;;;19.42;10.30;;;;;;;15.61;100.00;95614.75;5090297;28;20043;-76
2022/08/31 05:40:05;;;;;;;18.48;10.48;;;;;;;15.63;100.00;95621.31;5087929;28;20078;-76
2022/08/31 05:42:30;;;;;;;22.35;10.40;;;;;;;15.57;100.00;95618.00;5077738;28;20048;-76
2022/08/31 05:44:56;;;;;;;20.80;11.00;;;;;;;15.63;100.00;95616.03;5088382;28;20047;-76
2022/08/31 05:47:22;;;;;;;17.20;10.68;;;;;;;15.61;100.00;95612.88;5090419;28;20040;-76
2022/08/31 05:49:47;;;;;;;16.15;10.38;;;;;;;15.63;100.00;95615.22;5089446;28;20079;-76
2022/08/31 05:52:13;;;;;;;24.00;11.05;;;;;;;15.66;100.00;95609.31;5079722;28;20178;-76
2022/08/31 05:54:39;;;;;;;20.67;10.68;;;;;;;15.73;100.00;95605.19;5085215;28;20047;-76
2022/08/31 05:57:05;;;;;;;15.07;9.95;;;;;;;15.77;100.00;95600.03;5090147;28;20803;-76
2022/08/31 05:59:32;;;;;;;22.02;10.15;;;;;;;15.75;100.00;95596.91;5089298;28;20089;-75
2022/08/31 06:01:58;;;;;;;19.88;10.23;;;;;;;15.73;100.00;95605.19;5085438;28;20525;-76
2022/08/31 06:04:23;;;;;;;26.58;10.73;;;;;;;15.84;100.00;95597.00;5089964;28;20079;-76
2022/08/31 06:06:49;;;;;;;19.88;11.68;;;;;;;16.00;100.00;95603.53;5090201;28;20502;-76
2022/08/31 06:09:14;;;;;;;17.75;10.82;;;;;;;16.03;100.00;95602.13;5075911;28;20040;-76
2022/08/31 06:11:41;;;;;;;23.02;11.38;;;;;;;16.08;100.00;95600.16;5085380;28;20044;-76
2022/08/31 06:14:08;;;;;;;19.60;11.55;;;;;;;16.09;100.00;95607.03;5087413;28;20044;-76
2022/08/31 06:16:35;;;;;;;18.73;11.88;;;;;;;16.21;100.00;95605.72;5089376;28;20079;-76
2022/08/31 06:19:05;;;;;;;17.55;11.23;;;;;;;16.32;100.00;95607.03;5089046;28;20048;-76
2022/08/31 06:21:34;;;;;;;20.33;11.88;;;;;;;16.45;100.00;95613.34;5086994;28;20413;-76
2022/08/31 06:24:02;;;;;;;19.33;11.82;;;;;;;16.37;100.00;95616.75;5083351;28;20044;-76
2022/08/31 06:26:30;;;;;;;21.83;12.52;;;;;;;16.45;100.00;95619.44;5088004;28;20040;-76
2022/08/31 06:29:03;;;;;;;25.25;12.82;;;;;;;16.36;100.00;95618.59;5083873;28;20570;-77
2022/08/31 06:31:45;;;;;;;20.73;11.60;;;;;;;16.51;100.00;95622.00;5086278;28;20040;-76
2022/08/31 06:34:14;;;;;;;21.90;12.65;;;;;;;16.57;100.00;95612.78;5084487;28;20044;-76
2022/08/31 06:36:40;;;;;;;24.33;12.40;;;;;;;16.53;100.00;95625.09;5084580;28;20041;-77
2022/08/31 06:39:06;;;;;;;23.75;12.55;;;;;;;16.76;100.00;95628.50;5082712;28;20139;-76
2022/08/31 06:41:41;;;;;;;23.38;11.48;;;;;;;16.65;100.00;95637.81;5089990;28;20047;-76
2022/08/31 06:44:09;;;;;;;21.38;12.63;;;;;;;16.66;100.00;95634.84;5083002;28;20044;-76
2022/08/31 06:46:37;;;;;;;24.73;12.02;;;;;;;16.66;100.00;95624.22;5088251;28;20032;-77
2022/08/31 06:49:04;;;;;;;19.58;12.02;;;;;;;16.58;100.00;95632.97;5086851;28;20047;-77
2022/08/31 06:51:35;;;;;;;19.42;11.88;;;;;;;16.74;100.00;95630.69;5084309;28;20044;-77
2022/08/31 06:54:10;;;;;;;19.80;11.48;;;;;;;16.88;100.00;95636.72;5087067;28;20036;-77
2022/08/31 06:56:36;;;;;;;21.85;11.55;;;;;;;16.95;100.00;95631.75;5087822;28;20040;-76
2022/08/31 06:59:03;;;;;;;23.65;12.05;;;;;;;16.99;100.00;95631.91;5089063;28;20406;-76
2022/08/31 07:01:32;;;;;;;24.83;10.90;;;;;;;17.00;100.00;95641.47;5087719;28;20070;-76
2022/08/31 07:03:59;;;;;;;17.40;11.00;;;;;;;16.91;100.00;95635.31;5084192;28;20051;-77
2022/08/31 07:06:28;;;;;;;19.17;11.43;;;;;;;16.84;100.00;95640.25;5083820;28;20524;-77
2022/08/31 07:09:00;;;;;;;21.00;11.90;;;;;;;16.85;100.00;95644.50;5079946;28;20812;-76
2022/08/31 07:11:32;;;;;;;19.67;11.95;;;;;;;16.92;100.00;95636.88;5087827;28;20044;-77
2022/08/31 07:13:57;;;;;;;21.42;10.63;;;;;;;16.80;100.00;95635.56;5085736;28;20054;-77
2022/08/31 07:16:24;;;;;;;21.38;10.88;;;;;;;16.82;100.00;95637.91;5089517;28;20521;-77
2022/08/31 07:18:52;;;;;;;17.13;10.73;;;;;;;16.94;100.00;95645.34;5086963;28;20035;-77
2022/08/31 07:21:21;;;;;;;17.00;10.90;;;;;;;17.07;100.00;95641.81;5086912;28;20129;-76
2022/08/31 07:23:50;;;;;;;17.98;10.82;;;;;;;17.16;100.00;95638.41;5081987;28;20038;-78
2022/08/31 07:26:24;;;;;;;25.10;11.05;;;;;;;17.07;100.00;95639.16;5089145;28;20519;-77
2022/08/31 07:28:52;;;;;;;18.40;11.37;;;;;;;17.08;100.00;95635.41;5082855;28;20146;-78
2022/08/31 07:31:21;;;;;;;22.85;10.88;;;;;;;17.20;100.00;95631.38;5085528;28;20036;-78
2022/08/31 07:33:52;;;;;;;20.95;10.85;;;;;;;17.14;100.00;95644.03;5092176;28;20039;-77
2022/08/31 07:36:17;;;;;;;19.48;10.90;;;;;;;17.11;100.00;95640.09;5086414;28;20043;-78
2022/08/31 07:44:14;;;;;;;18.73;9.93;;;;;;;17.60;100.00;95644.63;5079086;28;20040;-76
2022/08/31 07:46:40;;;;;;;19.05;9.43;;;;;;;17.72;100.00;95650.09;5081484;28;20044;-76
2022/08/31 07:49:12;;;;;;;18.52;10.10;;;;;;;17.38;100.00;95648.91;5089376;28;20115;-76
2022/08/31 07:51:48;;;;;;;16.40;9.00;;;;;;;17.67;100.00;95652.91;5088996;28;20062;-76
2022/08/31 07:54:16;;;;;;;18.15;10.60;;;;;;;17.58;100.00;95657.44;5091871;28;20044;-76
2022/08/31 07:56:42;;;;;;;17.42;9.55;;;;;;;17.71;100.00;95661.81;5091610;28;20089;-76
2022/08/31 07:59:08;;;;;;;20.35;10.57;;;;;;;17.65;100.00;95660.41;5091745;28;20457;-76
2022/08/31 08:01:36;;;;;;;18.15;9.43;;;;;;;17.76;100.00;95659.03;5089812;28;20106;-76
2022/08/31 08:04:05;;;;;;;17.02;9.50;;;;;;;17.73;100.00;95662.31;5091422;28;20105;-76
2022/08/31 08:06:30;;;;;;;16.63;9.88;;;;;;;17.69;100.00;95664.03;5086482;28;20066;-75
2022/08/31 08:09:05;;;;;;;21.27;9.80;;;;;;;17.48;100.00;95667.28;5090444;28;20460;-75
2022/08/31 08:11:32;;;;;;;16.85;10.30;;;;;;;17.53;100.00;95670.88;5090288;28;20033;-75
2022/08/31 08:13:58;;;;;;;16.70;9.57;;;;;;;17.66;100.00;95667.31;5087925;28;20039;-75
2022/08/31 08:16:24;;;;;;;17.70;10.32;;;;;;;17.87;100.00;95669.38;5090307;28;20072;-75
2022/08/31 08:18:49;;;;;;;15.98;9.50;;;;;;;17.86;100.00;95667.78;5087233;28;20051;-76
2022/08/31 08:21:15;;;;;;;18.63;9.93;;;;;;;17.67;100.00;95671.56;5089989;28;20040;-77
2022/08/31 08:23:40;;;;;;;18.08;10.10;;;;;;;17.89;100.00;95673.28;5090266;28;20097;-78
2022/08/31 08:26:09;;;;;;;16.27;10.02;;;;;;;18.01;100.00;95680.69;5084458;28;20630;-77
2022/08/31 08:28:34;;;;;;;18.45;9.55;;;;;;;17.99;100.00;95674.91;5090096;28;20052;-77
2022/08/31 08:31:00;;;;;;;19.10;9.57;;;;;;;17.91;100.00;95681.00;5088912;28;20074;-77
2022/08/31 08:33:28;;;;;;;17.33;8.95;;;;;;;18.09;100.00;95677.25;5090784;28;20642;-76
2022/08/31 08:36:01;;;;;;;18.55;9.60;;;;;;;17.80;100.00;95675.94;5091386;28;20048;-79
2022/08/31 08:38:29;;;;;;;17.15;9.63;;;;;;;17.79;100.00;95679.69;5091591;28;20043;-76
2022/08/31 08:40:57;;;;;;;15.73;9.90;;;;;;;17.76;100.00;95685.63;5084472;28;20044;-76
2022/08/31 08:43:32;;;;;;;18.50;9.98;;;;;;;17.83;100.00;95685.19;5090151;28;20044;-76
2022/08/31 08:46:01;;;;;;;15.65;9.50;;;;;;;17.88;100.00;95687.69;5091671;28;20101;-78
2022/08/31 08:48:31;;;;;;;20.40;9.73;;;;;;;18.00;100.00;95687.09;5092671;28;20058;-76
2022/08/31 08:51:00;;;;;;;18.05;9.52;;;;;;;18.19;100.00;95692.13;5087941;28;20128;-77
2022/08/31 08:53:28;;;;;;;18.02;9.80;;;;;;;18.01;100.00;95691.34;5082598;28;20048;-76
2022/08/31 08:55:53;;;;;;;17.63;9.68;;;;;;;18.21;100.00;95692.59;5089436;28;20043;-76
2022/08/31 08:58:19;;;;;;;16.67;9.18;;;;;;;17.89;100.00;95696.47;5089308;28;20512;-76
2022/08/31 09:00:51;;;;;;;19.38;9.60;;;;;;;18.04;100.00;95701.34;5086021;28;20075;-77
2022/08/31 09:03:51;;;;;;;15.07;9.90;;;;;;;17.99;100.00;95704.19;5089537;28;20123;-78
2022/08/31 09:06:19;;;;;;;17.23;9.60;;;;;;;17.95;100.00;95697.91;5085999;28;20106;-76
2022/08/31 09:09:21;;;;;;;19.75;9.38;;;;;;;17.96;100.00;95699.50;5088568;28;20040;-78
2022/08/31 09:12:03;;;;;;;27.13;10.20;;;;;;;17.83;100.00;95691.28;5088690;28;20047;-76
2022/08/31 09:14:46;;;;;;;19.25;9.95;;;;;;;18.16;100.00;95698.09;5096203;28;20048;-77
2022/08/31 09:17:49;;;;;;;16.48;9.68;;;;;;;18.14;100.00;95701.03;5089990;28;20542;-77
2022/08/31 09:20:15;;;;;;;19.80;9.93;;;;;;;18.37;100.00;95692.91;5086355;28;20115;-77
2022/08/31 09:22:49;;;;;;;17.13;10.07;;;;;;;18.37;100.00;95698.22;5087785;28;20055;-77
2022/08/31 09:25:25;;;;;;;21.23;9.82;;;;;;;18.46;100.00;95691.03;5090126;28;20479;-77
2022/08/31 09:27:58;;;;;;;16.85;9.52;;;;;;;18.70;100.00;95689.72;5086993;28;20052;-77
2022/08/31 09:30:51;;;;;;;16.67;9.10;;;;;;;19.02;100.00;95695.63;5084683;28;20119;-76
2022/08/31 09:33:19;;;;;;;16.05;9.55;;;;;;;18.84;100.00;95690.31;5083114;28;20036;-77
2022/08/31 09:35:45;;;;;;;16.17;8.55;;;;;;;18.77;100.00;95694.56;5086003;28;20051;-77
2022/08/31 09:38:25;;;;;;;14.75;9.23;;;;;;;18.74;100.00;95690.66;5087476;28;20032;-77
2022/08/31 09:40:51;;;;;;;18.70;9.35;;;;;;;18.75;100.00;95689.56;5085094;28;20101;-78
2022/08/31 09:43:26;;;;;;;17.25;9.65;;;;;;;18.57;100.00;95685.38;5084828;28;20040;-77
2022/08/31 09:46:06;;;;;;;18.17;9.60;;;;;;;18.78;100.00;95680.94;5089264;28;20043;-78
2022/08/31 09:48:55;;;;;;;19.02;10.05;;;;;;;18.99;100.00;95691.72;5088574;28;20409;-78
2022/08/31 09:51:26;;;;;;;16.55;9.88;;;;;;;19.07;100.00;95687.47;5089355;28;20097;-78
2022/08/31 09:56:56;;;;;;;16.90;9.85;;;;;;;18.86;100.00;95682.81;5087639;28;20093;-77
2022/08/31 09:59:28;;;;;;;18.38;9.98;;;;;;;18.94;100.00;95691.13;5092002;28;20456;-79
2022/08/31 10:01:54;;;;;;;15.02;9.60;;;;;;;18.76;100.00;95687.66;5084401;28;20494;-78
2022/08/31 10:04:25;;;;;;;16.58;9.90;;;;;;;18.52;100.00;95689.75;5088366;28;20059;-77
2022/08/31 10:07:23;;;;;;;17.65;10.20;;;;;;;18.41;100.00;95688.50;5092134;28;20036;-77
2022/08/31 10:10:03;;;;;;;18.67;10.00;;;;;;;18.08;100.00;95702.31;5095748;28;20044;-78
2022/08/31 10:12:44;;;;;;;19.25;10.82;;;;;;;17.95;100.00;95703.25;5090493;28;20525;-78
2022/08/31 10:15:26;;;;;;;22.08;10.45;;;;;;;17.83;100.00;95704.59;5097065;28;20039;-80
2022/08/31 10:18:10;;;;;;;21.20;11.30;;;;;;;17.82;100.00;95700.34;5084109;28;20125;-79
2022/08/31 10:20:44;;;;;;;20.92;11.75;;;;;;;17.92;100.00;95693.22;5087863;28;20751;-79
2022/08/31 10:23:48;;;;;;;18.75;9.40;;;;;;;18.08;100.00;95701.53;5089759;28;20109;-80
2022/08/31 10:26:19;;;;;;;20.85;11.00;;;;;;;17.99;100.00;95701.53;5089521;28;20036;-79
2022/08/31 10:28:52;;;;;;;18.95;10.32;;;;;;;18.06;100.00;95703.69;5094097;28;20115;-77
2022/08/31 10:31:22;;;;;;;18.70;10.57;;;;;;;18.03;100.00;95705.13;5079051;28;20036;-79
2022/08/31 10:36:42;;;;;;;18.90;10.40;;;;;;;17.90;100.00;95711.34;5097377;28;20028;-78
2022/08/31 10:39:23;;;;;;;22.48;10.65;;;;;;;17.83;100.00;95711.81;5093024;28;20047;-77
2022/08/31 10:41:50;;;;;;;20.60;10.52;;;;;;;17.77;100.00;95719.16;5095505;28;20052;-76
2022/08/31 10:44:25;;;;;;;17.83;10.57;;;;;;;17.69;100.00;95721.81;5089375;28;20090;-77
2022/08/31 10:46:53;;;;;;;17.55;10.68;;;;;;;17.58;100.00;95729.28;5091093;28;20044;-77
2022/08/31 10:49:21;;;;;;;22.45;11.13;;;;;;;17.37;100.00;95732.50;5086804;28;20044;-77
2022/08/31 10:52:20;;;;;;;18.63;10.30;;;;;;;17.22;100.00;95732.91;5084992;28;20043;-78
2022/08/31 10:54:55;;;;;;;18.33;9.70;;;;;;;17.09;100.00;95737.22;5082927;28;20036;-78
2022/08/31 10:57:37;;;;;;;20.20;9.95;;;;;;;17.03;100.00;95739.22;5089047;28;20071;-76
2022/08/31 11:00:02;;;;;;;16.60;9.93;;;;;;;16.98;100.00;95742.00;5084834;28;20051;-77
2022/08/31 11:02:48;;;;;;;22.73;10.73;;;;;;;16.84;100.00;95742.06;5089648;28;20032;-78
2022/08/31 11:05:39;;;;;;;22.08;10.27;;;;;;;16.79;100.00;95756.25;5089210;28;20439;-78
2022/08/31 11:08:23;;;;;;;19.92;11.07;;;;;;;16.60;100.00;95752.97;5089391;28;20082;-79
2022/08/31 11:10:52;;;;;;;17.88;11.05;;;;;;;16.58;100.00;95760.47;5087753;28;20040;-80
2022/08/31 11:13:42;;;;;;;20.10;10.82;;;;;;;16.47;100.00;95759.16;5082243;28;20031;-80
2022/08/31 11:16:19;;;;;;;23.27;11.75;;;;;;;16.43;100.00;95759.75;5080820;28;20047;-78
2022/08/31 11:19:13;;;;;;;23.38;12.35;;;;;;;16.13;100.00;95760.41;5089027;28;20118;-80
2022/08/31 11:21:49;;;;;;;24.65;13.25;;;;;;;15.67;100.00;95765.53;5082965;28;20048;-78
2022/08/31 11:24:27;;;;;;;41.22;14.57;;;;;;;15.59;100.00;95760.94;5088319;28;20040;-77
2022/08/31 11:27:32;;;;;;;17.13;9.23;;;;;;;15.51;100.00;95756.31;5081235;28;20039;-77
2022/08/31 11:30:01;;;;;;;22.30;14.00;;;;;;;15.39;100.00;95764.75;5083916;28;20049;-79
2022/08/31 11:32:33;;;;;;;28.92;14.60;;;;;;;15.52;100.00;95752.59;5088225;28;20433;-78
2022/08/31 11:35:08;;;;;;;20.90;12.02;;;;;;;15.45;100.00;95763.56;5088775;28;20036;-78
2022/08/31 11:37:55;;;;;;;23.67;12.05;;;;;;;15.62;100.00;95762.22;5086982;28;20055;-78
2022/08/31 11:40:42;;;;;;;18.25;9.35;;;;;;;15.64;100.00;95744.91;5084390;28;20040;-79